Aviation Digital Data Service (ADDS)

Output produced by METARs form (2230 UTC 28 July 2014)
found at http://aviationweather.gov/adds/metars/
 
KINT 281813Z 2818/2918 31012G21KT P6SM SCT060 
     FM290000 33007KT P6SM FEW100